• Join FlightAware (Why Join?)
  • Login
  • US Flag 
07:12PM EDT


 

Airport Tracker/Info


-or-


 

Live Flight TrackerFlight Track Log ✈ EGF2974 ✈ 26-Apr-2012 ✈ KABI - KDFW

Flight Track Log - Related Links

Times and Time Zones

All times are in EDT time to prevent confusion due to time zone crossing. See the EGF2974 flight status page for this flight to view local times or setup timezone preferences in your user account.

Time Position Orientation Groundspeed Altitude Reporting Facility
EDT Latitude Longitude Course Direction KTS MPH feet Rate Location/Type
09:16AM 32.3993 -99.6646 112° Southeast  Level FlightAware Approximate
09:17AM 32.3758 -99.5791 116° Southeast  Level FlightAware Approximate
09:18AM 32.3615 -99.4909 159° South  Level FlightAware Approximate
09:19AM 32.3342 -99.4786 96° East 274 315 7,800  Level Fort Worth Center
09:20AM 32.3253 -99.3828 98° East 285 328 9,700 1,740 Climbing Fort Worth Center
09:21AM 32.3122 -99.2742 97° East 300 345 11,300 1,560 Climbing Fort Worth Center
09:22AM 32.3014 -99.1633 97° East 322 371 12,900 1,500 Climbing Fort Worth Center
09:23AM 32.2883 -99.0453 97° East 344 396 14,400 1,500 Climbing Fort Worth Center
09:24AM 32.2753 -98.9244 96° East 362 417 15,900 1,500 Climbing Fort Worth Center
09:25AM 32.2642 -98.8017 85° East 369 425 17,400 1,440 Climbing Fort Worth Center
09:26AM 32.2739 -98.6617 84° East 369 425 18,800 780 Climbing Fort Worth Center
09:27AM 32.2856 -98.5317 85° East 393 452 19,000 60 Climbing Fort Worth Center
09:28AM 32.2950 -98.3892 85° East 427 491 19,000 -360 Level Fort Worth Center
09:29AM 32.3044 -98.2589 87° East 443 510 18,300 -1,200 Descending Fort Worth Center
09:30AM 32.3117 -98.1092 85° East 428 493 16,700 -1,500 Descending Fort Worth Center
09:31AM 32.3206 -97.9861 86° East 416 479 15,400 -1,440 Descending Fort Worth Center
09:32AM 32.3303 -97.8358 87° East 405 466 13,800 -1,500 Descending FAA TRACON SMA TRACON (SMA)
09:33AM 32.3333 -97.7533 80° East 401 461 12,900 -1,380 Descending FAA TRACON SMA TRACON (SMA)
09:33AM 32.3458 -97.6658 51° Northeast 396 456 12,000 -1,440 Descending FAA TRACON SMA TRACON (SMA)
09:34AM 32.3933 -97.5972 46° Northeast 390 449 11,000 -840 Descending FAA TRACON SMA TRACON (SMA)
09:35AM 32.4392 -97.5417 45° Northeast 384 442 10,900 -120 Descending FAA TRACON SMA TRACON (SMA)
09:35AM 32.4903 -97.4808 45° Northeast 377 434 10,900  Level FAA TRACON SMA TRACON (SMA)
09:36AM 32.5419 -97.4194 46° Northeast 379 436 10,900  Level FAA TRACON SMA TRACON (SMA)
09:37AM 32.5875 -97.3642 46° Northeast 379 436 10,900  Level FAA TRACON SMA TRACON (SMA)
09:37AM 32.6386 -97.3022 46° Northeast 380 437 10,900  Level FAA TRACON SMA TRACON (SMA)
09:38AM 32.6817 -97.2500 46° Northeast 355 409 10,900  Level FAA TRACON SMA TRACON (SMA)
09:39AM 32.7233 -97.1994 28° Northeast 302 348 10,900  Level FAA TRACON SMA TRACON (SMA)
09:39AM 32.7667 -97.1717 North 263 303 10,900 -240 Level FAA TRACON SMA TRACON (SMA)
09:40AM 32.8158 -97.1706 360° North 254 292 10,600 -1,020 Descending FAA TRACON SMA TRACON (SMA)
09:41AM 32.8594 -97.1706 360° North 254 292 9,700 -1,440 Descending FAA TRACON SMA TRACON (SMA)
09:41AM 32.9086 -97.1706 North 256 295 8,700 -1,440 Descending FAA TRACON SMA TRACON (SMA)
09:42AM 32.9519 -97.1686 North 253 291 7,800 -1,560 Descending FAA TRACON SMA TRACON (SMA)
09:43AM 32.9994 -97.1664 42° Northeast 244 281 6,600 -1,800 Descending FAA TRACON SMA TRACON (SMA)
09:43AM 33.0328 -97.1300 42° Northeast 270 311 5,400 -1,860 Descending FAA TRACON SMA TRACON (SMA)